sensor_id;sensor_type;location;lat;lon;timestamp;pressure;altitude;pressure_sealevel;temperature;humidity
33805;BME280;66088;52.622;13.306;2022-12-18T05:16:40;102922.16;;;1.06;61.93
33805;BME280;66088;52.622;13.306;2022-12-18T05:26:13;102870.94;;;0.63;61.79
33805;BME280;66088;52.622;13.306;2022-12-18T05:30:43;102926.53;;;0.86;61.93
33805;BME280;66088;52.622;13.306;2022-12-18T05:35:16;102859.22;;;0.51;61.77
33805;BME280;66088;52.622;13.306;2022-12-18T05:39:42;102942.97;;;1.02;61.89
33805;BME280;66088;52.622;13.306;2022-12-18T05:44:01;102943.38;;;0.98;61.93
33805;BME280;66088;52.622;13.306;2022-12-18T05:48:21;102894.34;;;0.66;61.60
33805;BME280;66088;52.622;13.306;2022-12-18T05:52:49;102946.09;;;0.93;61.67
33805;BME280;66088;52.622;13.306;2022-12-18T05:57:26;102901.28;;;0.67;61.80
33805;BME280;66088;52.622;13.306;2022-12-18T06:02:09;102950.13;;;0.90;61.61
33805;BME280;66088;52.622;13.306;2022-12-18T06:06:28;102944.81;;;0.82;62.00
33805;BME280;66088;52.622;13.306;2022-12-18T06:10:52;102806.75;;;0.04;61.80
33805;BME280;66088;52.622;13.306;2022-12-18T06:15:13;102870.91;;;0.41;61.90
33805;BME280;66088;52.622;13.306;2022-12-18T06:19:33;102962.00;;;0.97;61.98
33805;BME280;66088;52.622;13.306;2022-12-18T06:23:52;102968.59;;;1.02;61.91
33805;BME280;66088;52.622;13.306;2022-12-18T06:28:35;102908.78;;;0.66;61.85
33805;BME280;66088;52.622;13.306;2022-12-18T06:33:13;102968.22;;;0.85;61.84
33805;BME280;66088;52.622;13.306;2022-12-18T06:37:32;102872.09;;;0.09;61.37
33805;BME280;66088;52.622;13.306;2022-12-18T06:42:07;103006.22;;;0.82;61.65
33805;BME280;66088;52.622;13.306;2022-12-18T06:46:38;102898.06;;;0.12;61.51
33805;BME280;66088;52.622;13.306;2022-12-18T06:50:58;102999.78;;;0.64;61.63
33805;BME280;66088;52.622;13.306;2022-12-18T06:55:35;103021.53;;;0.67;61.96
33805;BME280;66088;52.622;13.306;2022-12-18T06:59:54;102930.56;;;0.20;62.12
33805;BME280;66088;52.622;13.306;2022-12-18T07:04:17;103009.13;;;0.70;61.90
33805;BME280;66088;52.622;13.306;2022-12-18T08:12:03;102806.06;;;-0.37;61.94
33805;BME280;66088;52.622;13.306;2022-12-18T08:16:35;103026.34;;;0.86;62.37
33805;BME280;66088;52.622;13.306;2022-12-18T08:20:57;102989.00;;;0.66;62.51
33805;BME280;66088;52.622;13.306;2022-12-18T08:25:17;102959.19;;;0.52;62.32
33805;BME280;66088;52.622;13.306;2022-12-18T08:38:41;102957.97;;;0.21;62.02
33805;BME280;66088;52.622;13.306;2022-12-18T08:43:01;103045.72;;;0.84;62.35
33805;BME280;66088;52.622;13.306;2022-12-18T08:47:26;103029.97;;;0.81;62.38
33805;BME280;66088;52.622;13.306;2022-12-18T08:51:45;103055.75;;;0.82;62.03
33805;BME280;66088;52.622;13.306;2022-12-18T08:56:18;102921.00;;;-0.03;62.57
33805;BME280;66088;52.622;13.306;2022-12-18T09:00:38;102902.03;;;0.03;62.08
33805;BME280;66088;52.622;13.306;2022-12-18T09:04:57;103049.00;;;0.83;61.54
33805;BME280;66088;52.622;13.306;2022-12-18T09:09:18;102973.16;;;0.27;62.00
33805;BME280;66088;52.622;13.306;2022-12-18T09:13:47;103011.63;;;0.56;61.73
33805;BME280;66088;52.622;13.306;2022-12-18T09:18:07;102934.91;;;0.07;61.47
33805;BME280;66088;52.622;13.306;2022-12-18T09:23:03;102830.06;;;-0.57;61.57
33805;BME280;66088;52.622;13.306;2022-12-18T09:27:22;102994.00;;;0.30;61.45
33805;BME280;66088;52.622;13.306;2022-12-18T09:31:47;102915.97;;;-0.23;61.86
33805;BME280;66088;52.622;13.306;2022-12-18T09:36:09;103065.34;;;0.63;61.87
33805;BME280;66088;52.622;13.306;2022-12-18T09:40:49;102908.88;;;-0.18;61.63
33805;BME280;66088;52.622;13.306;2022-12-18T09:45:15;102813.84;;;-0.85;61.61
33805;BME280;66088;52.622;13.306;2022-12-18T09:49:50;102758.31;;;-1.08;61.65
33805;BME280;66088;52.622;13.306;2022-12-18T09:54:23;102897.72;;;-0.26;61.54
33805;BME280;66088;52.622;13.306;2022-12-18T09:58:50;103027.84;;;0.42;62.07
33805;BME280;66088;52.622;13.306;2022-12-18T10:08:24;102756.88;;;-1.05;61.83
33805;BME280;66088;52.622;13.306;2022-12-18T10:13:12;102742.31;;;-1.27;61.67
33805;BME280;66088;52.622;13.306;2022-12-18T10:22:40;102804.72;;;-0.90;61.98
33805;BME280;66088;52.622;13.306;2022-12-18T10:27:23;102939.38;;;-0.12;62.14
33805;BME280;66088;52.622;13.306;2022-12-18T10:44:43;102620.06;;;-1.94;62.30
33805;BME280;66088;52.622;13.306;2022-12-18T13:55:25;102722.47;;;-0.53;63.53
33805;BME280;66088;52.622;13.306;2022-12-18T14:29:27;102842.41;;;0.31;63.72
33805;BME280;66088;52.622;13.306;2022-12-18T14:38:20;102427.81;;;-2.11;63.92
33805;BME280;66088;52.622;13.306;2022-12-18T14:43:01;102393.59;;;-2.13;64.19
33805;BME280;66088;52.622;13.306;2022-12-18T15:26:18;102894.38;;;1.10;64.67
33805;BME280;66088;52.622;13.306;2022-12-18T15:31:19;102425.41;;;-1.75;64.77
